Time;durP1;ratioP1;P1;durP2;ratioP2;P2;SDS_P1;SDS_P2;PMS_P1;PMS_P2;Temp;Humidity;BMP_temperature;BMP_pressure;BME280_temperature;BME280_humidity;BME280_pressure;Samples;Min_cycle;Max_cycle;Signal;HPM_P1;HPM_P2
2020/12/02 00:00:37;;;;;;;13.70;11.17;;;3.60;99.90;;;;;;5009167;28;20195;-69
2020/12/02 00:03:11;;;;;;;12.30;10.83;;;3.50;99.90;;;;;;5010285;28;20544;-70
2020/12/02 00:05:44;;;;;;;12.37;10.50;;;3.60;99.90;;;;;;5009959;28;20899;-70
2020/12/02 00:08:15;;;;;;;13.10;10.97;;;3.60;99.90;;;;;;5009720;28;20467;-69
2020/12/02 00:10:41;;;;;;;19.27;11.90;;;3.60;99.90;;;;;;5008651;28;20457;-70
2020/12/02 00:13:10;;;;;;;16.87;12.00;;;3.60;99.90;;;;;;5009941;28;20492;-70
2020/12/02 00:15:36;;;;;;;14.07;10.80;;;3.60;99.90;;;;;;5009799;28;20237;-70
2020/12/02 00:18:02;;;;;;;15.43;12.30;;;3.60;99.90;;;;;;5009246;28;20430;-69
2020/12/02 00:20:27;;;;;;;15.10;11.07;;;3.60;99.90;;;;;;5009413;28;20743;-70
2020/12/02 00:22:53;;;;;;;15.20;12.07;;;3.60;99.90;;;;;;5009654;28;20221;-70
2020/12/02 00:25:19;;;;;;;13.73;10.67;;;3.50;99.90;;;;;;5010046;28;20692;-70
2020/12/02 00:27:44;;;;;;;15.70;10.87;;;3.60;99.90;;;;;;5009096;28;20182;-69
2020/12/02 00:30:14;;;;;;;16.63;11.27;;;3.60;99.90;;;;;;5009734;28;20539;-70
2020/12/02 00:32:43;;;;;;;17.30;12.30;;;3.50;99.90;;;;;;5010033;28;20183;-70
2020/12/02 00:35:17;;;;;;;16.73;10.40;;;3.50;99.90;;;;;;5009202;28;20508;-70
2020/12/02 00:37:44;;;;;;;15.23;11.00;;;3.50;99.90;;;;;;5008732;28;20436;-69
2020/12/02 00:40:12;;;;;;;14.40;11.70;;;3.50;99.90;;;;;;5010026;28;20969;-69
2020/12/02 00:42:38;;;;;;;20.77;13.63;;;3.60;99.90;;;;;;5009720;28;20458;-70
2020/12/02 00:45:06;;;;;;;14.50;11.77;;;3.50;99.90;;;;;;5009716;28;20433;-70
2020/12/02 00:47:32;;;;;;;19.00;14.07;;;3.50;99.90;;;;;;5009659;28;20178;-70
2020/12/02 00:49:58;;;;;;;18.80;12.47;;;3.50;99.90;;;;;;5006963;28;20441;-70
2020/12/02 00:52:25;;;;;;;17.00;12.30;;;3.40;99.90;;;;;;4998683;28;20204;-70
2020/12/02 00:54:52;;;;;;;16.80;12.27;;;3.50;99.90;;;;;;5003901;28;20434;-70
2020/12/02 01:00:40;;;;;;;15.80;11.80;;;3.50;99.90;;;;;;5001116;28;20529;-70
2020/12/02 01:03:27;;;;;;;24.97;14.93;;;3.50;99.90;;;;;;5008756;28;20469;-70
2020/12/02 01:05:54;;;;;;;23.93;14.10;;;3.40;99.90;;;;;;5011370;28;20495;-70
2020/12/02 01:08:32;;;;;;;18.53;13.47;;;3.40;99.90;;;;;;4994589;28;20435;-70
2020/12/02 01:11:05;;;;;;;28.30;15.33;;;3.40;99.90;;;;;;5001742;28;20507;-70
2020/12/02 01:13:34;;;;;;;24.80;14.50;;;3.40;99.90;;;;;;5012752;28;20973;-70
2020/12/02 01:16:06;;;;;;;29.20;16.00;;;3.30;99.90;;;;;;5011867;28;20426;-70
2020/12/02 01:18:32;;;;;;;31.10;16.23;;;3.30;99.90;;;;;;5009892;28;20934;-70
2020/12/02 01:21:24;;;;;;;32.10;15.83;;;3.30;99.90;;;;;;5005952;28;20511;-70
2020/12/02 01:24:10;;;;;;;25.63;16.10;;;3.20;99.90;;;;;;5011514;28;20644;-70
2020/12/02 01:26:42;;;;;;;47.83;16.20;;;3.30;99.90;;;;;;5011165;28;20437;-70
2020/12/02 01:29:15;;;;;;;28.50;16.10;;;3.30;99.90;;;;;;5011931;28;20425;-70
2020/12/02 01:31:46;;;;;;;32.53;16.10;;;3.30;99.90;;;;;;5006034;28;20454;-70
2020/12/02 01:34:13;;;;;;;39.43;16.60;;;3.30;99.90;;;;;;5010593;28;20853;-70
2020/12/02 01:37:16;;;;;;;35.83;16.63;;;3.30;99.90;;;;;;4998986;28;21021;-70
2020/12/02 01:39:46;;;;;;;45.93;16.93;;;3.20;99.90;;;;;;5010334;28;20807;-70
2020/12/02 01:42:12;;;;;;;69.00;19.53;;;3.10;99.90;;;;;;4998806;28;20471;-70
2020/12/02 01:44:40;;;;;;;23.70;13.60;;;3.10;99.90;;;;;;5012151;28;20430;-70
2020/12/02 01:47:07;;;;;;;22.60;14.57;;;3.10;99.90;;;;;;5003912;28;20959;-70
2020/12/02 01:49:59;;;;;;;39.17;15.97;;;3.10;99.90;;;;;;5010059;28;20480;-70
2020/12/02 01:52:43;;;;;;;23.10;14.00;;;3.20;99.90;;;;;;4991166;28;20837;-69
2020/12/02 01:55:13;;;;;;;35.67;16.77;;;3.20;99.90;;;;;;5010412;28;20433;-70
2020/12/02 01:57:39;;;;;;;24.03;14.03;;;3.20;99.90;;;;;;4994863;28;20435;-70
2020/12/02 02:00:19;;;;;;;22.77;16.03;;;3.20;99.90;;;;;;5009069;28;20525;-70
2020/12/02 02:03:02;;;;;;;20.00;15.70;;;3.10;99.90;;;;;;5011703;28;20206;-70
2020/12/02 02:05:46;;;;;;;22.37;15.60;;;3.00;99.90;;;;;;5011882;28;20430;-70
2020/12/02 02:08:12;;;;;;;24.87;15.87;;;3.00;99.90;;;;;;5010595;28;20430;-70
2020/12/02 02:10:40;;;;;;;23.93;15.40;;;3.00;99.90;;;;;;5003596;28;21055;-70
2020/12/02 02:13:41;;;;;;;26.70;17.50;;;2.90;99.90;;;;;;5009411;28;20461;-70
2020/12/02 02:16:27;;;;;;;25.40;17.30;;;2.90;99.90;;;;;;4995033;28;20436;-70
2020/12/02 02:18:53;;;;;;;25.40;17.20;;;2.90;99.90;;;;;;5010843;28;20876;-70
2020/12/02 02:21:24;;;;;;;25.80;17.20;;;2.90;99.90;;;;;;5007703;28;20549;-70
2020/12/02 02:23:50;;;;;;;30.20;16.47;;;2.90;99.90;;;;;;5001473;28;20186;-70
2020/12/02 02:26:25;;;;;;;26.43;16.93;;;3.00;99.90;;;;;;5011662;28;20434;-70
2020/12/02 02:29:12;;;;;;;22.93;15.67;;;3.00;99.90;;;;;;5008285;28;20174;-70
2020/12/02 02:32:12;;;;;;;24.57;16.60;;;3.00;99.90;;;;;;5003001;28;20492;-70
2020/12/02 02:34:39;;;;;;;24.63;15.77;;;3.00;99.90;;;;;;4984754;28;20516;-70
2020/12/02 02:37:09;;;;;;;23.97;15.90;;;3.00;99.90;;;;;;5001840;28;20433;-70
2020/12/02 02:39:35;;;;;;;20.20;15.77;;;3.00;99.90;;;;;;5009780;28;20435;-70
2020/12/02 02:42:06;;;;;;;23.90;16.77;;;3.00;99.90;;;;;;5011144;28;20501;-70
2020/12/02 02:44:32;;;;;;;27.43;15.80;;;3.00;99.90;;;;;;5006045;28;20445;-70
2020/12/02 02:46:58;;;;;;;26.10;17.37;;;3.10;99.90;;;;;;5008001;28;20525;-70
2020/12/02 02:49:23;;;;;;;19.23;15.57;;;3.00;99.90;;;;;;5008459;28;20206;-70
2020/12/02 02:51:49;;;;;;;19.67;15.37;;;3.10;99.90;;;;;;5009378;28;20194;-70
2020/12/02 02:54:15;;;;;;;23.67;16.57;;;3.20;99.90;;;;;;4999385;28;20649;-70
2020/12/02 02:56:41;;;;;;;26.20;16.80;;;3.20;99.90;;;;;;5009813;28;20456;-70
2020/12/02 02:59:08;;;;;;;21.23;15.10;;;3.30;99.90;;;;;;5009045;28;20198;-70
2020/12/02 03:01:35;;;;;;;17.67;14.03;;;3.30;99.90;;;;;;5009618;28;20248;-70
2020/12/02 03:04:00;;;;;;;21.63;14.97;;;3.40;99.90;;;;;;5000941;28;20438;-70
2020/12/02 03:06:26;;;;;;;19.07;14.07;;;3.30;99.90;;;;;;5006373;28;20800;-70
2020/12/02 03:08:52;;;;;;;21.67;15.23;;;3.30;99.90;;;;;;5004799;28;20258;-70
2020/12/02 03:11:19;;;;;;;21.67;14.93;;;3.40;99.90;;;;;;5010531;28;20214;-70
2020/12/02 03:13:52;;;;;;;20.67;15.03;;;3.40;99.90;;;;;;5009014;28;20190;-70
2020/12/02 03:16:34;;;;;;;22.90;15.17;;;3.40;99.90;;;;;;5007614;28;20442;-70
2020/12/02 03:19:07;;;;;;;20.77;15.43;;;3.40;99.90;;;;;;5005603;28;20461;-70
2020/12/02 03:21:33;;;;;;;19.30;15.10;;;3.40;99.90;;;;;;5000331;28;20473;-70
2020/12/02 03:23:58;;;;;;;21.10;16.13;;;3.20;99.90;;;;;;5006487;28;20437;-70
2020/12/02 03:26:24;;;;;;;19.23;16.00;;;3.10;99.90;;;;;;5010624;28;20663;-70
2020/12/02 03:28:50;;;;;;;19.00;15.77;;;3.00;99.90;;;;;;5006631;28;20233;-70
2020/12/02 03:31:19;;;;;;;20.80;14.27;;;3.10;99.90;;;;;;5008473;28;20869;-70
2020/12/02 03:33:44;;;;;;;19.53;15.00;;;3.10;99.90;;;;;;5005964;28;20235;-70
2020/12/02 03:36:14;;;;;;;19.60;14.57;;;3.20;99.90;;;;;;5004169;28;20847;-70
2020/12/02 03:38:40;;;;;;;22.53;15.40;;;3.20;99.90;;;;;;5000327;28;20167;-70
2020/12/02 03:41:06;;;;;;;22.93;15.73;;;3.20;99.90;;;;;;5008236;28;20472;-70
2020/12/02 03:43:32;;;;;;;22.87;15.97;;;3.20;99.90;;;;;;5003651;28;20203;-70
2020/12/02 03:45:58;;;;;;;21.33;15.43;;;3.20;99.90;;;;;;5008479;28;20457;-70
2020/12/02 03:48:23;;;;;;;24.00;17.63;;;3.30;99.90;;;;;;5009101;28;20237;-70
2020/12/02 03:50:49;;;;;;;21.10;15.40;;;3.30;99.90;;;;;;5008553;28;20257;-70
2020/12/02 03:53:16;;;;;;;21.50;15.90;;;3.30;99.90;;;;;;4999964;28;20167;-70
2020/12/02 03:55:42;;;;;;;23.70;15.47;;;3.30;99.90;;;;;;5005911;28;20175;-70
2020/12/02 03:58:08;;;;;;;20.27;14.30;;;3.20;99.90;;;;;;5000638;28;20834;-70
2020/12/02 04:00:34;;;;;;;19.63;15.30;;;3.20;99.90;;;;;;5005510;28;20217;-70
2020/12/02 04:03:00;;;;;;;18.27;14.63;;;3.20;99.90;;;;;;5009750;28;20861;-70
2020/12/02 04:05:25;;;;;;;22.47;17.50;;;3.30;99.90;;;;;;5010300;28;20556;-70
2020/12/02 04:07:51;;;;;;;20.43;14.07;;;3.30;99.90;;;;;;5002460;28;20254;-70
2020/12/02 04:10:16;;;;;;;22.37;14.00;;;3.30;99.90;;;;;;5010374;28;20637;-70
2020/12/02 04:12:44;;;;;;;18.30;13.63;;;3.30;99.90;;;;;;5008760;28;20637;-69
2020/12/02 04:15:10;;;;;;;21.80;16.53;;;3.20;99.90;;;;;;5005114;28;20171;-69
2020/12/02 04:17:35;;;;;;;19.43;15.00;;;3.30;99.90;;;;;;5009222;28;20438;-69
2020/12/02 04:20:01;;;;;;;18.90;14.87;;;3.30;99.90;;;;;;5008473;28;20183;-70
2020/12/02 04:22:27;;;;;;;20.10;15.80;;;3.30;99.90;;;;;;5009581;28;20285;-69
2020/12/02 04:24:52;;;;;;;19.73;13.90;;;3.30;99.90;;;;;;4994554;28;20493;-70
2020/12/02 04:27:18;;;;;;;23.53;15.07;;;3.20;99.90;;;;;;5008696;28;20180;-70
2020/12/02 04:29:44;;;;;;;19.97;14.80;;;3.30;99.90;;;;;;5004417;28;20554;-70
2020/12/02 04:32:10;;;;;;;17.20;13.80;;;3.30;99.90;;;;;;5009652;28;20202;-70
2020/12/02 04:34:36;;;;;;;18.47;14.70;;;3.30;99.90;;;;;;5009520;28;20784;-70
2020/12/02 04:37:02;;;;;;;21.37;13.37;;;3.40;99.90;;;;;;5009323;28;20444;-70
2020/12/02 04:39:27;;;;;;;18.33;14.60;;;3.30;99.90;;;;;;5010335;28;20542;-70
2020/12/02 04:41:53;;;;;;;19.53;15.17;;;3.40;99.90;;;;;;5009989;28;20465;-70
2020/12/02 04:44:20;;;;;;;26.97;15.80;;;3.30;99.90;;;;;;5013203;28;20179;-70
2020/12/02 04:46:46;;;;;;;20.60;15.70;;;3.20;99.90;;;;;;5010215;28;20947;-70
2020/12/02 04:49:18;;;;;;;20.30;16.03;;;3.20;99.90;;;;;;5012674;28;20449;-70
2020/12/02 04:51:45;;;;;;;22.80;15.70;;;3.20;99.90;;;;;;5003391;28;20317;-70
2020/12/02 04:54:11;;;;;;;22.80;17.70;;;3.30;99.90;;;;;;5009281;28;20453;-70
2020/12/02 04:56:42;;;;;;;22.30;15.93;;;3.20;99.90;;;;;;5003397;28;20437;-70
2020/12/02 04:59:08;;;;;;;22.07;16.43;;;3.30;99.90;;;;;;5001168;28;20446;-70
2020/12/02 05:01:45;;;;;;;17.83;15.60;;;3.30;99.90;;;;;;5011156;28;20829;-70
2020/12/02 05:04:23;;;;;;;24.77;15.13;;;3.20;99.90;;;;;;5013305;28;20182;-70
2020/12/02 05:07:10;;;;;;;25.90;17.80;;;3.20;99.90;;;;;;5013001;28;20441;-70
2020/12/02 05:09:58;;;;;;;24.23;17.60;;;3.10;99.90;;;;;;5012291;28;20947;-70
2020/12/02 05:12:36;;;;;;;22.37;16.03;;;3.20;99.90;;;;;;5012306;28;20493;-69
2020/12/02 05:15:28;;;;;;;23.83;17.10;;;3.30;99.90;;;;;;5013104;28;20443;-70
2020/12/02 05:18:05;;;;;;;19.73;14.93;;;3.20;99.90;;;;;;5012110;28;20998;-70
2020/12/02 05:20:30;;;;;;;28.00;17.23;;;3.20;99.90;;;;;;5012539;28;20437;-70
2020/12/02 05:23:00;;;;;;;20.33;13.90;;;3.20;99.90;;;;;;5013056;28;20481;-70
2020/12/02 05:25:33;;;;;;;27.67;16.67;;;3.20;99.90;;;;;;5013122;28;20542;-70
2020/12/02 05:28:02;;;;;;;20.40;14.97;;;3.20;99.90;;;;;;5012121;28;20532;-70
2020/12/02 05:30:31;;;;;;;25.77;16.47;;;3.20;99.90;;;;;;5012635;28;20513;-70
2020/12/02 05:33:12;;;;;;;20.97;15.40;;;3.20;99.90;;;;;;5012573;28;20445;-70
2020/12/02 05:36:12;;;;;;;29.10;18.07;;;3.20;99.90;;;;;;5012890;28;21209;-70
2020/12/02 05:38:48;;;;;;;23.77;19.20;;;3.10;99.90;;;;;;4999870;28;20454;-70
2020/12/02 05:41:17;;;;;;;22.40;16.17;;;3.10;99.90;;;;;;5012308;28;20511;-70
2020/12/02 05:43:53;;;;;;;20.83;15.13;;;3.10;99.90;;;;;;5012544;28;20798;-70
2020/12/02 05:46:39;;;;;;;18.07;14.80;;;3.20;99.90;;;;;;5012492;28;20430;-70
2020/12/02 05:49:08;;;;;;;20.27;14.70;;;3.20;99.90;;;;;;5011680;28;20521;-70
2020/12/02 05:51:34;;;;;;;18.00;13.73;;;3.20;99.90;;;;;;5011642;28;20461;-70
2020/12/02 05:54:05;;;;;;;22.27;16.87;;;3.30;99.90;;;;;;5012671;28;20970;-70
2020/12/02 05:56:31;;;;;;;22.83;17.30;;;3.30;99.90;;;;;;5012449;28;20438;-70
2020/12/02 05:58:56;;;;;;;21.30;16.67;;;3.20;99.90;;;;;;5011812;28;20852;-70
2020/12/02 06:01:23;;;;;;;22.80;16.87;;;3.20;99.90;;;;;;5012136;28;20218;-70
2020/12/02 06:03:54;;;;;;;21.70;15.43;;;3.20;99.90;;;;;;5011604;28;20207;-70
2020/12/02 06:06:21;;;;;;;21.80;16.60;;;3.20;99.90;;;;;;5010458;28;20851;-70
2020/12/02 06:08:50;;;;;;;21.43;15.47;;;3.20;99.90;;;;;;5001180;28;20484;-70
2020/12/02 06:11:15;;;;;;;18.13;16.00;;;3.30;99.90;;;;;;5011916;28;20461;-70
2020/12/02 06:13:45;;;;;;;19.17;14.20;;;3.30;99.90;;;;;;5009602;28;21225;-70
2020/12/02 06:16:15;;;;;;;19.07;13.97;;;3.30;99.90;;;;;;5010264;28;20175;-70
2020/12/02 06:18:41;;;;;;;22.40;13.70;;;3.20;99.90;;;;;;4994448;28;20446;-70
2020/12/02 06:21:37;;;;;;;18.53;13.17;;;3.10;99.90;;;;;;5012290;28;20965;-70
2020/12/02 06:24:03;;;;;;;20.73;13.43;;;3.10;99.90;;;;;;5006777;28;20585;-70
2020/12/02 06:26:46;;;;;;;19.60;12.73;;;3.10;99.90;;;;;;5009558;28;20437;-70
2020/12/02 06:29:32;;;;;;;16.77;12.43;;;3.00;99.90;;;;;;5002577;28;20179;-70
2020/12/02 06:32:20;;;;;;;20.70;13.13;;;3.00;99.90;;;;;;5007100;28;20465;-70
2020/12/02 06:34:48;;;;;;;19.73;13.40;;;2.90;99.90;;;;;;4992384;28;20442;-70
2020/12/02 06:37:17;;;;;;;18.93;14.27;;;2.80;99.90;;;;;;4998998;28;20968;-70
2020/12/02 06:39:49;;;;;;;19.10;14.63;;;2.80;99.90;;;;;;4991432;28;20422;-70
2020/12/02 06:42:22;;;;;;;19.23;13.30;;;2.80;99.90;;;;;;5007426;28;20468;-70
2020/12/02 06:45:21;;;;;;;16.77;12.20;;;2.80;99.90;;;;;;4997248;28;20517;-70
2020/12/02 06:47:50;;;;;;;16.60;11.90;;;2.80;99.90;;;;;;5010796;28;20448;-70
2020/12/02 06:50:19;;;;;;;22.97;13.90;;;2.80;99.90;;;;;;5010858;28;20516;-71
2020/12/02 06:52:45;;;;;;;21.93;14.20;;;2.90;99.90;;;;;;4995561;28;20449;-71
2020/12/02 06:55:27;;;;;;;21.50;13.50;;;3.10;99.90;;;;;;5010647;28;20441;-71
2020/12/02 06:57:58;;;;;;;17.90;13.20;;;3.20;99.90;;;;;;5010094;28;20640;-68
2020/12/02 07:00:45;;;;;;;18.50;12.43;;;3.30;99.90;;;;;;5011291;28;20444;-68
2020/12/02 07:03:41;;;;;;;25.60;12.90;;;3.10;99.90;;;;;;5000413;28;20544;-68
2020/12/02 07:06:18;;;;;;;21.07;12.80;;;3.00;99.90;;;;;;5011076;28;20433;-70
2020/12/02 07:08:45;;;;;;;19.33;13.00;;;2.80;99.90;;;;;;5010319;28;20523;-69
2020/12/02 07:11:20;;;;;;;15.87;11.97;;;2.80;99.90;;;;;;5006483;28;20449;-68
2020/12/02 07:13:49;;;;;;;18.70;12.80;;;2.70;99.90;;;;;;4995727;28;20452;-69
2020/12/02 07:16:34;;;;;;;21.00;14.50;;;2.70;99.90;;;;;;4980569;28;20446;-70
2020/12/02 07:19:10;;;;;;;18.30;13.00;;;2.60;99.90;;;;;;4997869;28;20467;-72
2020/12/02 07:21:42;;;;;;;20.43;13.10;;;2.60;99.90;;;;;;5002292;28;20535;-69
2020/12/02 07:24:17;;;;;;;19.57;13.80;;;2.60;99.90;;;;;;5016435;28;21287;-69
2020/12/02 07:26:43;;;;;;;21.10;11.40;;;2.50;99.90;;;;;;5011720;28;20436;-69
2020/12/02 07:29:15;;;;;;;21.30;13.37;;;2.50;99.90;;;;;;5012039;28;20512;-69
2020/12/02 07:31:41;;;;;;;19.60;13.80;;;2.50;99.90;;;;;;5003292;28;20465;-69
2020/12/02 07:34:21;;;;;;;19.63;13.50;;;2.60;99.90;;;;;;5005426;28;20535;-69
2020/12/02 07:36:48;;;;;;;21.10;12.27;;;2.60;99.90;;;;;;5006723;28;20194;-70
2020/12/02 07:39:18;;;;;;;20.90;12.50;;;2.60;99.90;;;;;;5001338;28;20517;-70
2020/12/02 07:42:19;;;;;;;19.00;12.13;;;2.60;99.90;;;;;;4999029;28;20466;-69
2020/12/02 07:44:55;;;;;;;20.83;13.53;;;2.50;99.90;;;;;;4982511;28;20441;-69
2020/12/02 07:47:21;;;;;;;21.57;12.83;;;2.50;99.90;;;;;;5000731;28;20429;-70
2020/12/02 07:49:59;;;;;;;21.27;14.57;;;2.50;99.90;;;;;;5005404;28;20441;-69
2020/12/02 07:52:31;;;;;;;21.07;14.30;;;2.60;99.90;;;;;;5000399;28;20458;-69
2020/12/02 07:54:57;;;;;;;22.27;14.07;;;2.60;99.90;;;;;;5003580;28;20452;-70
2020/12/02 07:57:25;;;;;;;22.90;14.00;;;2.60;99.90;;;;;;5006778;28;20445;-69
2020/12/02 08:00:24;;;;;;;24.97;15.60;;;2.60;99.90;;;;;;5005842;28;20851;-69
2020/12/02 08:02:51;;;;;;;22.87;14.10;;;2.60;99.90;;;;;;5006379;28;20458;-69
2020/12/02 08:05:37;;;;;;;24.23;13.63;;;2.70;99.90;;;;;;5005934;28;20430;-70
2020/12/02 08:08:02;;;;;;;25.70;14.47;;;2.80;99.90;;;;;;4994897;28;20448;-69
2020/12/02 08:10:34;;;;;;;19.97;14.90;;;2.80;99.90;;;;;;5005012;28;20430;-69
2020/12/02 08:13:12;;;;;;;20.13;14.23;;;2.80;99.90;;;;;;5005888;28;20943;-69
2020/12/02 08:15:51;;;;;;;22.87;14.57;;;2.70;99.90;;;;;;5008867;28;21043;-69
2020/12/02 08:18:27;;;;;;;22.27;13.80;;;2.80;99.90;;;;;;5002109;28;21116;-69
2020/12/02 08:21:04;;;;;;;21.23;13.30;;;2.70;99.90;;;;;;5004775;28;20528;-69
2020/12/02 08:23:34;;;;;;;22.23;14.00;;;2.80;99.90;;;;;;5005678;28;20452;-69
2020/12/02 08:26:13;;;;;;;28.50;17.43;;;2.70;99.90;;;;;;5010339;28;20434;-69
2020/12/02 08:28:42;;;;;;;20.63;14.97;;;2.70;99.90;;;;;;5008948;28;20437;-70
2020/12/02 08:31:21;;;;;;;25.40;15.93;;;2.70;99.90;;;;;;5005978;28;20968;-70
2020/12/02 08:34:24;;;;;;;17.70;14.40;;;2.60;99.90;;;;;;5003161;28;20556;-68
2020/12/02 08:37:11;;;;;;;23.10;13.97;;;2.60;99.90;;;;;;5010542;28;20433;-69
2020/12/02 08:39:48;;;;;;;25.40;15.10;;;2.70;99.90;;;;;;5008455;28;20457;-69
2020/12/02 08:42:30;;;;;;;25.57;17.80;;;2.70;99.90;;;;;;5008250;28;20472;-69
2020/12/02 08:45:19;;;;;;;23.47;15.93;;;2.60;99.90;;;;;;5005983;28;20442;-69
2020/12/02 08:47:56;;;;;;;31.13;16.03;;;2.60;99.90;;;;;;5005781;28;20973;-69
2020/12/02 08:50:28;;;;;;;22.23;15.90;;;2.60;99.90;;;;;;4998465;28;21039;-69
2020/12/02 08:52:58;;;;;;;26.17;15.30;;;2.50;99.90;;;;;;5009479;28;20851;-70
2020/12/02 08:55:25;;;;;;;27.80;14.30;;;2.60;99.90;;;;;;5008996;28;20532;-70
2020/12/02 08:57:51;;;;;;;23.40;14.73;;;2.70;99.90;;;;;;5008544;28;20452;-69
2020/12/02 09:00:19;;;;;;;23.83;14.63;;;2.60;99.90;;;;;;5007088;28;20493;-69
2020/12/02 09:02:46;;;;;;;23.17;16.93;;;2.70;99.90;;;;;;4990716;28;20466;-69
2020/12/02 09:05:12;;;;;;;26.73;14.23;;;2.60;99.90;;;;;;5003708;28;20488;-69
2020/12/02 09:07:38;;;;;;;30.43;14.13;;;2.60;99.90;;;;;;5016352;28;20441;-69
2020/12/02 09:10:05;;;;;;;20.63;13.83;;;2.60;99.90;;;;;;5009911;28;20186;-69
2020/12/02 09:12:30;;;;;;;18.53;12.47;;;2.60;99.90;;;;;;5010129;28;20253;-69
2020/12/02 09:14:56;;;;;;;23.90;14.00;;;2.60;99.90;;;;;;5009636;28;20445;-69
2020/12/02 09:17:23;;;;;;;19.73;12.30;;;2.60;99.90;;;;;;4998606;28;20782;-70
2020/12/02 09:19:50;;;;;;;20.50;14.40;;;2.60;99.90;;;;;;5005502;28;20449;-69
2020/12/02 09:22:16;;;;;;;22.93;11.63;;;2.70;99.90;;;;;;5009234;28;20476;-69
2020/12/02 09:24:44;;;;;;;20.60;13.57;;;2.60;99.90;;;;;;5008554;28;20511;-69
2020/12/02 09:27:10;;;;;;;20.73;14.10;;;2.60;99.90;;;;;;5008725;28;20488;-69
2020/12/02 09:29:36;;;;;;;18.53;12.37;;;2.60;99.90;;;;;;5008636;28;20445;-69
2020/12/02 09:32:01;;;;;;;17.93;12.20;;;2.60;99.90;;;;;;5000331;28;20451;-69
2020/12/02 09:34:27;;;;;;;17.50;11.13;;;2.60;99.90;;;;;;5008859;28;20190;-69
2020/12/02 09:36:52;;;;;;;13.33;9.57;;;2.60;99.90;;;;;;5009349;28;20692;-70
2020/12/02 09:39:18;;;;;;;17.43;11.33;;;2.60;99.90;;;;;;5008331;28;20193;-69
2020/12/02 09:42:21;;;;;;;17.00;11.40;;;2.70;99.90;;;;;;5008258;28;20676;-69
2020/12/02 09:45:14;;;;;;;13.40;10.20;;;2.70;99.90;;;;;;5001391;28;20183;-69
2020/12/02 09:47:40;;;;;;;14.07;9.40;;;2.70;99.90;;;;;;5007950;28;20441;-69
2020/12/02 09:50:08;;;;;;;12.77;9.30;;;2.80;99.90;;;;;;5008322;28;20524;-70
2020/12/02 09:52:46;;;;;;;15.33;10.03;;;2.90;99.90;;;;;;5009747;28;20465;-69
2020/12/02 09:55:22;;;;;;;14.07;9.43;;;3.00;99.90;;;;;;5006872;28;20437;-69
2020/12/02 09:57:50;;;;;;;14.53;9.80;;;3.10;99.90;;;;;;5006926;28;20441;-69
2020/12/02 10:00:17;;;;;;;16.63;10.90;;;3.20;99.90;;;;;;4998322;28;20430;-70
2020/12/02 10:03:16;;;;;;;13.27;9.77;;;3.30;99.90;;;;;;5008552;28;20473;-68
2020/12/02 10:06:09;;;;;;;11.87;8.83;;;3.40;99.90;;;;;;5008080;28;20434;-70
2020/12/02 10:08:44;;;;;;;16.50;10.03;;;3.40;99.90;;;;;;5006825;28;20865;-69
2020/12/02 10:11:37;;;;;;;15.20;9.60;;;3.40;99.90;;;;;;5006289;28;20491;-69
2020/12/02 10:14:17;;;;;;;11.97;8.80;;;3.40;99.90;;;;;;5007473;28;20488;-69
2020/12/02 10:17:08;;;;;;;16.37;10.63;;;3.40;99.90;;;;;;5008345;28;20433;-69
2020/12/02 10:20:04;;;;;;;14.13;11.00;;;3.40;99.90;;;;;;4997809;28;20866;-69
2020/12/02 10:22:50;;;;;;;13.50;10.13;;;3.40;99.90;;;;;;5007915;28;20482;-69
2020/12/02 10:25:22;;;;;;;13.90;9.43;;;3.30;99.90;;;;;;5008104;28;20441;-69
2020/12/02 10:28:09;;;;;;;12.33;9.27;;;3.40;99.90;;;;;;5007013;28;20532;-70
2020/12/02 10:30:41;;;;;;;14.43;8.77;;;3.40;99.90;;;;;;4997980;28;20492;-69
2020/12/02 10:33:27;;;;;;;11.10;8.40;;;3.50;99.90;;;;;;5007891;28;20448;-70
2020/12/02 10:35:56;;;;;;;12.20;9.47;;;3.50;99.90;;;;;;5008600;28;20440;-69
2020/12/02 10:38:35;;;;;;;12.20;8.10;;;3.50;99.90;;;;;;4998685;28;20463;-70
2020/12/02 10:41:12;;;;;;;10.73;8.13;;;3.40;99.90;;;;;;5003908;28;20561;-69
2020/12/02 10:43:45;;;;;;;11.87;8.70;;;3.40;99.90;;;;;;5003184;28;20429;-68
2020/12/02 10:46:23;;;;;;;13.57;11.53;;;3.50;99.90;;;;;;5007147;28;20936;-69
2020/12/02 10:49:07;;;;;;;17.40;11.73;;;3.40;99.90;;;;;;4995450;28;20427;-70
2020/12/02 10:51:36;;;;;;;20.80;12.30;;;3.30;99.90;;;;;;5007376;28;20218;-70
2020/12/02 10:54:12;;;;;;;15.33;11.17;;;3.30;99.90;;;;;;5008375;28;21121;-70
2020/12/02 10:56:41;;;;;;;20.57;12.30;;;3.30;99.90;;;;;;5007981;28;20425;-70
2020/12/02 10:59:13;;;;;;;14.70;10.70;;;3.20;99.90;;;;;;5007574;28;20449;-69
2020/12/02 11:01:42;;;;;;;21.03;11.50;;;3.20;99.90;;;;;;5008107;28;20556;-69
2020/12/02 11:04:13;;;;;;;14.83;10.97;;;3.20;99.90;;;;;;5008488;28;20430;-69
2020/12/02 11:06:57;;;;;;;19.50;12.63;;;3.40;99.90;;;;;;5008168;28;20915;-69
2020/12/02 11:09:38;;;;;;;17.67;11.83;;;3.40;99.90;;;;;;5007378;28;20425;-69
2020/12/02 11:12:37;;;;;;;22.83;13.23;;;3.50;99.90;;;;;;5008295;28;20817;-69
2020/12/02 11:15:16;;;;;;;19.90;14.40;;;3.40;99.90;;;;;;5007810;28;20476;-69
2020/12/02 11:17:55;;;;;;;24.57;14.20;;;3.30;99.90;;;;;;5005468;28;20509;-69
2020/12/02 11:20:41;;;;;;;21.23;13.83;;;3.30;99.90;;;;;;5005343;28;20464;-69
2020/12/02 11:23:32;;;;;;;25.40;14.60;;;3.20;99.90;;;;;;5007420;28;20549;-69
2020/12/02 11:26:03;;;;;;;19.93;14.80;;;3.20;99.90;;;;;;5007213;28;20878;-69
2020/12/02 11:28:29;;;;;;;24.77;15.10;;;3.30;99.90;;;;;;5006903;28;20444;-69
2020/12/02 11:31:02;;;;;;;24.00;15.20;;;3.40;99.90;;;;;;5007578;28;21120;-70
2020/12/02 11:33:45;;;;;;;27.80;15.90;;;3.50;99.90;;;;;;5007657;28;20186;-68
2020/12/02 11:36:29;;;;;;;21.40;14.43;;;3.50;99.90;;;;;;5010964;28;20417;-70
2020/12/02 11:39:11;;;;;;;21.97;15.77;;;3.50;99.90;;;;;;5026481;28;20428;-69
2020/12/02 11:41:53;;;;;;;25.90;16.07;;;3.50;99.90;;;;;;5026924;28;20468;-69
2020/12/02 11:44:39;;;;;;;23.73;15.00;;;3.50;99.90;;;;;;5027040;28;20413;-68
2020/12/02 11:47:11;;;;;;;27.67;14.53;;;3.40;99.90;;;;;;5027715;28;20922;-69
2020/12/02 11:49:42;;;;;;;25.27;17.13;;;3.40;99.90;;;;;;5025889;28;20751;-68
2020/12/02 11:52:29;;;;;;;23.37;15.53;;;3.20;99.90;;;;;;5009298;28;20452;-68
2020/12/02 11:54:56;;;;;;;30.80;15.37;;;3.30;99.90;;;;;;5007431;28;20417;-68
2020/12/02 11:57:22;;;;;;;22.63;14.27;;;3.30;99.90;;;;;;5007443;28;20479;-68
2020/12/02 11:59:47;;;;;;;21.87;15.00;;;3.20;99.90;;;;;;5006988;28;20429;-68
2020/12/02 12:02:39;;;;;;;23.13;15.10;;;3.20;99.90;;;;;;5007084;28;20465;-69
2020/12/02 12:05:32;;;;;;;20.70;13.37;;;3.30;99.90;;;;;;5007340;28;20644;-69
2020/12/02 12:08:09;;;;;;;21.20;13.90;;;3.30;99.90;;;;;;5001832;28;20492;-69
2020/12/02 12:10:46;;;;;;;28.70;15.47;;;3.20;99.90;;;;;;5001769;28;20456;-68
2020/12/02 12:13:17;;;;;;;24.00;13.90;;;3.30;99.90;;;;;;5006185;28;20437;-68
2020/12/02 12:15:47;;;;;;;21.27;15.13;;;3.30;99.90;;;;;;4997840;28;21003;-68
2020/12/02 12:18:37;;;;;;;23.60;14.00;;;3.20;99.90;;;;;;5002863;28;20489;-67
2020/12/02 12:21:17;;;;;;;22.60;13.40;;;3.20;99.90;;;;;;5005942;28;20903;-68
2020/12/02 12:24:11;;;;;;;21.17;13.20;;;3.20;99.90;;;;;;5005563;28;20437;-68
2020/12/02 12:26:42;;;;;;;20.97;13.70;;;3.00;99.90;;;;;;4999472;28;20439;-67
2020/12/02 12:29:11;;;;;;;21.13;13.70;;;2.80;99.90;;;;;;5000969;28;20861;-67
2020/12/02 12:31:47;;;;;;;25.97;15.23;;;2.80;99.90;;;;;;5005725;28;20465;-67
2020/12/02 12:34:51;;;;;;;30.30;16.03;;;2.80;99.90;;;;;;4997662;28;20470;-67
2020/12/02 12:37:46;;;;;;;22.27;13.43;;;2.90;99.90;;;;;;5004940;28;21163;-68
2020/12/02 12:40:24;;;;;;;20.33;14.50;;;2.80;99.90;;;;;;5006202;28;21010;-67
2020/12/02 12:42:54;;;;;;;24.93;14.90;;;2.80;99.90;;;;;;5002230;28;20465;-67
2020/12/02 12:45:26;;;;;;;30.37;18.67;;;2.70;99.90;;;;;;5005529;28;20884;-67
2020/12/02 12:47:55;;;;;;;30.03;16.27;;;2.60;99.90;;;;;;5005546;28;20523;-68
2020/12/02 12:50:22;;;;;;;29.13;16.43;;;2.70;99.90;;;;;;4998089;28;20448;-67
2020/12/02 12:52:51;;;;;;;26.57;17.97;;;2.60;99.90;;;;;;4996350;28;20446;-68
2020/12/02 12:55:16;;;;;;;30.10;17.47;;;2.60;99.90;;;;;;5004256;28;20465;-67
2020/12/02 12:57:48;;;;;;;35.90;17.33;;;2.50;99.90;;;;;;4993137;28;20491;-68
2020/12/02 13:00:15;;;;;;;29.87;15.17;;;2.50;99.90;;;;;;5003960;28;20519;-68
2020/12/02 13:02:40;;;;;;;21.27;15.00;;;2.50;99.90;;;;;;5009395;28;20498;-68
2020/12/02 13:05:09;;;;;;;28.13;16.20;;;2.50;99.90;;;;;;5010168;28;20441;-68
2020/12/02 13:07:38;;;;;;;30.70;15.20;;;2.70;99.90;;;;;;5000564;28;20228;-67
2020/12/02 13:10:09;;;;;;;32.87;15.63;;;2.60;99.90;;;;;;5008480;28;20438;-70
2020/12/02 13:12:59;;;;;;;27.80;14.53;;;2.70;99.90;;;;;;5009704;28;20545;-68